Terminal Aerodrome Forecast
Issued by NWS

Home | Current Version | Previous Version | Text Only | Print | Product List | Glossary On
Versions: 1 2 3 4 5 6 7 8 9 10 11 12 13 14 15
597
FTUS43 KEAX 030749 AAA
TAFSTJ
TAF AMD
KSTJ 030749Z 0308/0406 VRB02KT 1SM BR FEW015
      TEMPO 0308/0310 1/2SM FG
     FM031300 30005KT P6SM SCT050=

USA.gov is the U.S. government's official web portal to all federal, state and local government web resources and services.